sensor_id;sensor_type;location;lat;lon;timestamp;P1;durP1;ratioP1;P2;durP2;ratioP2
15112;SDS011;7657;50.140;7.076;2022-12-18T00:02:13;13.37;;;7.63;;
15112;SDS011;7657;50.140;7.076;2022-12-18T00:04:40;15.37;;;8.13;;
15112;SDS011;7657;50.140;7.076;2022-12-18T00:07:07;13.73;;;7.50;;
15112;SDS011;7657;50.140;7.076;2022-12-18T00:09:34;11.37;;;6.03;;
15112;SDS011;7657;50.140;7.076;2022-12-18T00:12:01;10.93;;;6.30;;
15112;SDS011;7657;50.140;7.076;2022-12-18T00:14:27;10.83;;;6.63;;
15112;SDS011;7657;50.140;7.076;2022-12-18T00:16:56;20.10;;;9.33;;
15112;SDS011;7657;50.140;7.076;2022-12-18T00:19:25;13.40;;;6.23;;
15112;SDS011;7657;50.140;7.076;2022-12-18T00:21:53;11.23;;;7.70;;
15112;SDS011;7657;50.140;7.076;2022-12-18T00:24:20;14.73;;;9.43;;
15112;SDS011;7657;50.140;7.076;2022-12-18T00:26:47;13.27;;;8.27;;
15112;SDS011;7657;50.140;7.076;2022-12-18T00:29:14;13.53;;;6.70;;
15112;SDS011;7657;50.140;7.076;2022-12-18T00:31:41;11.53;;;6.03;;
15112;SDS011;7657;50.140;7.076;2022-12-18T00:34:10;12.47;;;7.73;;
15112;SDS011;7657;50.140;7.076;2022-12-18T00:36:38;12.60;;;7.50;;
15112;SDS011;7657;50.140;7.076;2022-12-18T00:39:06;11.20;;;6.27;;
15112;SDS011;7657;50.140;7.076;2022-12-18T00:41:33;15.30;;;6.83;;
15112;SDS011;7657;50.140;7.076;2022-12-18T00:44:18;15.63;;;6.83;;
15112;SDS011;7657;50.140;7.076;2022-12-18T00:46:46;13.07;;;7.10;;
15112;SDS011;7657;50.140;7.076;2022-12-18T00:49:15;15.47;;;7.83;;
15112;SDS011;7657;50.140;7.076;2022-12-18T00:51:42;10.30;;;6.20;;
15112;SDS011;7657;50.140;7.076;2022-12-18T00:54:09;10.50;;;5.83;;
15112;SDS011;7657;50.140;7.076;2022-12-18T00:56:37;10.67;;;5.57;;
15112;SDS011;7657;50.140;7.076;2022-12-18T00:59:04;9.13;;;4.90;;
15112;SDS011;7657;50.140;7.076;2022-12-18T01:01:31;9.97;;;5.50;;
15112;SDS011;7657;50.140;7.076;2022-12-18T01:03:59;10.30;;;5.63;;
15112;SDS011;7657;50.140;7.076;2022-12-18T01:06:28;10.67;;;5.93;;
15112;SDS011;7657;50.140;7.076;2022-12-18T01:08:55;9.53;;;5.40;;
15112;SDS011;7657;50.140;7.076;2022-12-18T01:11:22;8.50;;;5.50;;
15112;SDS011;7657;50.140;7.076;2022-12-18T01:13:49;10.63;;;5.37;;
15112;SDS011;7657;50.140;7.076;2022-12-18T01:16:17;11.73;;;5.77;;
15112;SDS011;7657;50.140;7.076;2022-12-18T01:18:44;9.73;;;5.37;;
15112;SDS011;7657;50.140;7.076;2022-12-18T01:21:12;8.97;;;5.37;;
15112;SDS011;7657;50.140;7.076;2022-12-18T01:23:42;10.67;;;6.27;;
15112;SDS011;7657;50.140;7.076;2022-12-18T01:26:09;10.27;;;5.80;;
15112;SDS011;7657;50.140;7.076;2022-12-18T01:28:38;13.00;;;7.00;;
15112;SDS011;7657;50.140;7.076;2022-12-18T01:31:12;11.90;;;6.40;;
15112;SDS011;7657;50.140;7.076;2022-12-18T01:33:41;10.70;;;6.40;;
15112;SDS011;7657;50.140;7.076;2022-12-18T01:36:08;12.83;;;7.33;;
15112;SDS011;7657;50.140;7.076;2022-12-18T01:38:42;15.03;;;7.00;;
15112;SDS011;7657;50.140;7.076;2022-12-18T01:41:09;13.53;;;7.37;;
15112;SDS011;7657;50.140;7.076;2022-12-18T01:43:50;12.37;;;6.27;;
15112;SDS011;7657;50.140;7.076;2022-12-18T01:46:19;17.27;;;8.10;;
15112;SDS011;7657;50.140;7.076;2022-12-18T01:48:48;15.83;;;8.43;;
15112;SDS011;7657;50.140;7.076;2022-12-18T01:51:17;12.70;;;7.27;;
15112;SDS011;7657;50.140;7.076;2022-12-18T01:53:45;14.50;;;7.77;;
15112;SDS011;7657;50.140;7.076;2022-12-18T01:56:14;12.17;;;7.30;;
15112;SDS011;7657;50.140;7.076;2022-12-18T01:58:46;12.80;;;6.80;;
15112;SDS011;7657;50.140;7.076;2022-12-18T02:01:20;12.40;;;6.53;;
15112;SDS011;7657;50.140;7.076;2022-12-18T02:03:48;10.60;;;6.40;;
15112;SDS011;7657;50.140;7.076;2022-12-18T02:06:17;10.90;;;6.17;;
15112;SDS011;7657;50.140;7.076;2022-12-18T02:08:54;10.53;;;6.03;;
15112;SDS011;7657;50.140;7.076;2022-12-18T02:11:31;15.03;;;7.53;;
15112;SDS011;7657;50.140;7.076;2022-12-18T02:14:07;11.60;;;6.20;;
15112;SDS011;7657;50.140;7.076;2022-12-18T02:16:43;10.57;;;6.10;;
15112;SDS011;7657;50.140;7.076;2022-12-18T02:19:19;11.33;;;6.07;;
15112;SDS011;7657;50.140;7.076;2022-12-18T02:22:03;11.90;;;6.03;;
15112;SDS011;7657;50.140;7.076;2022-12-18T02:24:41;10.80;;;6.07;;
15112;SDS011;7657;50.140;7.076;2022-12-18T02:27:18;11.13;;;6.23;;
15112;SDS011;7657;50.140;7.076;2022-12-18T02:29:46;12.57;;;6.40;;
15112;SDS011;7657;50.140;7.076;2022-12-18T02:32:17;10.43;;;6.07;;
15112;SDS011;7657;50.140;7.076;2022-12-18T02:34:48;12.73;;;6.80;;
15112;SDS011;7657;50.140;7.076;2022-12-18T02:37:17;9.57;;;6.60;;
15112;SDS011;7657;50.140;7.076;2022-12-18T02:39:46;12.23;;;6.77;;
15112;SDS011;7657;50.140;7.076;2022-12-18T02:42:15;12.27;;;6.60;;
15112;SDS011;7657;50.140;7.076;2022-12-18T02:44:45;13.27;;;6.67;;
15112;SDS011;7657;50.140;7.076;2022-12-18T02:47:14;12.43;;;6.80;;
15112;SDS011;7657;50.140;7.076;2022-12-18T02:49:44;12.87;;;7.03;;
15112;SDS011;7657;50.140;7.076;2022-12-18T02:52:21;10.97;;;6.67;;
15112;SDS011;7657;50.140;7.076;2022-12-18T02:54:57;12.20;;;6.87;;
15112;SDS011;7657;50.140;7.076;2022-12-18T02:57:34;14.97;;;6.70;;
15112;SDS011;7657;50.140;7.076;2022-12-18T03:00:09;10.27;;;5.90;;
15112;SDS011;7657;50.140;7.076;2022-12-18T03:02:39;11.30;;;6.70;;
15112;SDS011;7657;50.140;7.076;2022-12-18T03:05:12;11.60;;;5.80;;
15112;SDS011;7657;50.140;7.076;2022-12-18T03:07:45;9.83;;;6.20;;
15112;SDS011;7657;50.140;7.076;2022-12-18T03:10:17;12.20;;;6.13;;
15112;SDS011;7657;50.140;7.076;2022-12-18T03:12:50;11.80;;;6.77;;
15112;SDS011;7657;50.140;7.076;2022-12-18T03:15:22;13.17;;;6.53;;
15112;SDS011;7657;50.140;7.076;2022-12-18T03:17:55;11.67;;;6.20;;
15112;SDS011;7657;50.140;7.076;2022-12-18T03:20:25;12.00;;;6.63;;
15112;SDS011;7657;50.140;7.076;2022-12-18T03:22:59;18.53;;;9.53;;
15112;SDS011;7657;50.140;7.076;2022-12-18T03:25:28;49.57;;;21.97;;
15112;SDS011;7657;50.140;7.076;2022-12-18T03:27:58;48.10;;;23.40;;
15112;SDS011;7657;50.140;7.076;2022-12-18T03:30:31;26.70;;;14.80;;
15112;SDS011;7657;50.140;7.076;2022-12-18T03:33:03;16.40;;;9.00;;
15112;SDS011;7657;50.140;7.076;2022-12-18T03:35:35;13.30;;;7.97;;
15112;SDS011;7657;50.140;7.076;2022-12-18T03:38:05;12.87;;;7.53;;
15112;SDS011;7657;50.140;7.076;2022-12-18T03:40:35;17.50;;;9.20;;
15112;SDS011;7657;50.140;7.076;2022-12-18T03:43:10;16.03;;;8.37;;
15112;SDS011;7657;50.140;7.076;2022-12-18T03:45:42;17.93;;;7.40;;
15112;SDS011;7657;50.140;7.076;2022-12-18T03:48:17;16.07;;;7.27;;
15112;SDS011;7657;50.140;7.076;2022-12-18T03:50:53;16.53;;;8.20;;
15112;SDS011;7657;50.140;7.076;2022-12-18T03:53:25;12.47;;;6.90;;
15112;SDS011;7657;50.140;7.076;2022-12-18T03:55:57;12.27;;;6.27;;
15112;SDS011;7657;50.140;7.076;2022-12-18T03:58:26;15.50;;;7.83;;
15112;SDS011;7657;50.140;7.076;2022-12-18T04:00:56;14.03;;;8.20;;
15112;SDS011;7657;50.140;7.076;2022-12-18T04:03:27;18.17;;;8.40;;
15112;SDS011;7657;50.140;7.076;2022-12-18T04:05:56;14.97;;;7.57;;
15112;SDS011;7657;50.140;7.076;2022-12-18T04:08:26;13.00;;;7.30;;
15112;SDS011;7657;50.140;7.076;2022-12-18T04:10:53;13.40;;;7.10;;
15112;SDS011;7657;50.140;7.076;2022-12-18T04:13:24;17.77;;;8.40;;
15112;SDS011;7657;50.140;7.076;2022-12-18T04:15:53;15.90;;;7.77;;
15112;SDS011;7657;50.140;7.076;2022-12-18T04:18:22;16.07;;;8.90;;
15112;SDS011;7657;50.140;7.076;2022-12-18T04:20:48;18.40;;;9.33;;
15112;SDS011;7657;50.140;7.076;2022-12-18T04:23:15;18.13;;;9.63;;
15112;SDS011;7657;50.140;7.076;2022-12-18T04:25:42;16.30;;;9.63;;
15112;SDS011;7657;50.140;7.076;2022-12-18T04:28:09;19.47;;;12.73;;
15112;SDS011;7657;50.140;7.076;2022-12-18T04:30:36;15.07;;;8.77;;
15112;SDS011;7657;50.140;7.076;2022-12-18T04:33:03;14.63;;;9.07;;
15112;SDS011;7657;50.140;7.076;2022-12-18T04:35:31;19.07;;;9.90;;
15112;SDS011;7657;50.140;7.076;2022-12-18T04:37:58;14.70;;;8.77;;
15112;SDS011;7657;50.140;7.076;2022-12-18T04:40:25;15.80;;;8.53;;
15112;SDS011;7657;50.140;7.076;2022-12-18T04:42:52;16.53;;;9.50;;
15112;SDS011;7657;50.140;7.076;2022-12-18T04:45:19;16.40;;;9.27;;
15112;SDS011;7657;50.140;7.076;2022-12-18T04:47:45;18.20;;;9.33;;
15112;SDS011;7657;50.140;7.076;2022-12-18T04:50:12;16.90;;;9.33;;
15112;SDS011;7657;50.140;7.076;2022-12-18T04:52:41;19.60;;;9.00;;
15112;SDS011;7657;50.140;7.076;2022-12-18T04:55:07;15.20;;;8.43;;
15112;SDS011;7657;50.140;7.076;2022-12-18T04:57:34;15.10;;;8.70;;
15112;SDS011;7657;50.140;7.076;2022-12-18T05:00:01;16.10;;;8.80;;
15112;SDS011;7657;50.140;7.076;2022-12-18T05:02:29;15.60;;;8.97;;
15112;SDS011;7657;50.140;7.076;2022-12-18T05:04:56;16.47;;;8.90;;
15112;SDS011;7657;50.140;7.076;2022-12-18T05:07:23;15.23;;;8.37;;
15112;SDS011;7657;50.140;7.076;2022-12-18T05:09:51;14.60;;;8.00;;
15112;SDS011;7657;50.140;7.076;2022-12-18T05:12:18;70.80;;;28.57;;
15112;SDS011;7657;50.140;7.076;2022-12-18T05:14:45;73.97;;;33.40;;
15112;SDS011;7657;50.140;7.076;2022-12-18T05:17:12;18.13;;;9.53;;
15112;SDS011;7657;50.140;7.076;2022-12-18T05:19:39;15.67;;;8.03;;
15112;SDS011;7657;50.140;7.076;2022-12-18T05:22:05;16.00;;;8.50;;
15112;SDS011;7657;50.140;7.076;2022-12-18T05:24:32;15.57;;;8.43;;
15112;SDS011;7657;50.140;7.076;2022-12-18T05:27:01;14.53;;;7.27;;
15112;SDS011;7657;50.140;7.076;2022-12-18T05:29:28;14.33;;;7.97;;
15112;SDS011;7657;50.140;7.076;2022-12-18T05:31:54;15.30;;;7.43;;
15112;SDS011;7657;50.140;7.076;2022-12-18T05:34:21;12.23;;;7.00;;
15112;SDS011;7657;50.140;7.076;2022-12-18T05:36:48;14.27;;;7.10;;
15112;SDS011;7657;50.140;7.076;2022-12-18T05:39:15;12.93;;;7.03;;
15112;SDS011;7657;50.140;7.076;2022-12-18T05:41:42;15.13;;;7.80;;
15112;SDS011;7657;50.140;7.076;2022-12-18T05:44:10;15.73;;;8.40;;
15112;SDS011;7657;50.140;7.076;2022-12-18T05:46:37;12.70;;;7.50;;
15112;SDS011;7657;50.140;7.076;2022-12-18T05:49:07;17.70;;;8.97;;
15112;SDS011;7657;50.140;7.076;2022-12-18T05:51:34;20.97;;;10.90;;
15112;SDS011;7657;50.140;7.076;2022-12-18T05:54:01;23.67;;;13.70;;
15112;SDS011;7657;50.140;7.076;2022-12-18T05:56:28;17.13;;;10.70;;
15112;SDS011;7657;50.140;7.076;2022-12-18T05:58:54;18.90;;;10.50;;
15112;SDS011;7657;50.140;7.076;2022-12-18T06:01:24;23.17;;;12.40;;
15112;SDS011;7657;50.140;7.076;2022-12-18T06:03:52;19.73;;;11.60;;
15112;SDS011;7657;50.140;7.076;2022-12-18T06:06:20;24.10;;;13.57;;
15112;SDS011;7657;50.140;7.076;2022-12-18T06:08:48;21.60;;;12.20;;
15112;SDS011;7657;50.140;7.076;2022-12-18T06:11:17;22.73;;;14.17;;
15112;SDS011;7657;50.140;7.076;2022-12-18T06:13:44;18.70;;;11.10;;
15112;SDS011;7657;50.140;7.076;2022-12-18T06:16:11;19.20;;;11.17;;
15112;SDS011;7657;50.140;7.076;2022-12-18T06:18:40;19.40;;;10.10;;
15112;SDS011;7657;50.140;7.076;2022-12-18T06:21:07;18.83;;;10.37;;
15112;SDS011;7657;50.140;7.076;2022-12-18T06:23:34;17.97;;;11.47;;
15112;SDS011;7657;50.140;7.076;2022-12-18T06:26:03;19.23;;;10.80;;
15112;SDS011;7657;50.140;7.076;2022-12-18T06:28:30;15.13;;;8.83;;
15112;SDS011;7657;50.140;7.076;2022-12-18T06:30:57;16.23;;;9.70;;
15112;SDS011;7657;50.140;7.076;2022-12-18T06:33:25;16.40;;;9.67;;
15112;SDS011;7657;50.140;7.076;2022-12-18T06:35:58;15.77;;;8.57;;
15112;SDS011;7657;50.140;7.076;2022-12-18T06:38:26;17.33;;;8.80;;
15112;SDS011;7657;50.140;7.076;2022-12-18T06:40:53;18.33;;;10.17;;
15112;SDS011;7657;50.140;7.076;2022-12-18T06:43:20;15.63;;;8.57;;
15112;SDS011;7657;50.140;7.076;2022-12-18T06:45:47;15.90;;;8.50;;
15112;SDS011;7657;50.140;7.076;2022-12-18T06:48:17;14.23;;;8.37;;
15112;SDS011;7657;50.140;7.076;2022-12-18T06:50:44;16.23;;;8.37;;
15112;SDS011;7657;50.140;7.076;2022-12-18T06:53:12;17.33;;;8.27;;
15112;SDS011;7657;50.140;7.076;2022-12-18T06:55:39;16.17;;;8.03;;
15112;SDS011;7657;50.140;7.076;2022-12-18T06:58:06;18.13;;;8.73;;
15112;SDS011;7657;50.140;7.076;2022-12-18T07:00:33;15.60;;;7.80;;
15112;SDS011;7657;50.140;7.076;2022-12-18T07:03:00;17.77;;;8.50;;
15112;SDS011;7657;50.140;7.076;2022-12-18T07:05:27;16.37;;;9.60;;
15112;SDS011;7657;50.140;7.076;2022-12-18T07:07:54;16.93;;;9.20;;
15112;SDS011;7657;50.140;7.076;2022-12-18T07:10:22;16.77;;;9.53;;
15112;SDS011;7657;50.140;7.076;2022-12-18T07:12:49;22.93;;;11.57;;
15112;SDS011;7657;50.140;7.076;2022-12-18T07:15:16;19.47;;;11.97;;
15112;SDS011;7657;50.140;7.076;2022-12-18T07:17:43;20.43;;;10.77;;
15112;SDS011;7657;50.140;7.076;2022-12-18T07:20:10;22.20;;;11.37;;
15112;SDS011;7657;50.140;7.076;2022-12-18T07:22:37;22.43;;;11.43;;
15112;SDS011;7657;50.140;7.076;2022-12-18T07:25:04;23.70;;;11.90;;
15112;SDS011;7657;50.140;7.076;2022-12-18T07:27:34;18.47;;;10.50;;
15112;SDS011;7657;50.140;7.076;2022-12-18T07:30:00;21.20;;;10.90;;
15112;SDS011;7657;50.140;7.076;2022-12-18T07:32:27;18.73;;;11.00;;
15112;SDS011;7657;50.140;7.076;2022-12-18T07:34:56;21.57;;;12.00;;
15112;SDS011;7657;50.140;7.076;2022-12-18T07:37:22;25.47;;;12.37;;
15112;SDS011;7657;50.140;7.076;2022-12-18T07:39:49;19.10;;;11.20;;
15112;SDS011;7657;50.140;7.076;2022-12-18T07:42:16;19.40;;;11.17;;
15112;SDS011;7657;50.140;7.076;2022-12-18T07:44:59;19.10;;;10.20;;
15112;SDS011;7657;50.140;7.076;2022-12-18T07:47:27;21.30;;;10.53;;
15112;SDS011;7657;50.140;7.076;2022-12-18T07:49:54;16.97;;;9.83;;
15112;SDS011;7657;50.140;7.076;2022-12-18T07:52:21;19.10;;;11.60;;
15112;SDS011;7657;50.140;7.076;2022-12-18T07:54:48;19.80;;;11.70;;
15112;SDS011;7657;50.140;7.076;2022-12-18T07:57:15;17.57;;;8.93;;
15112;SDS011;7657;50.140;7.076;2022-12-18T07:59:42;16.27;;;9.23;;
15112;SDS011;7657;50.140;7.076;2022-12-18T08:02:10;22.30;;;11.20;;
15112;SDS011;7657;50.140;7.076;2022-12-18T08:04:37;20.27;;;11.27;;
15112;SDS011;7657;50.140;7.076;2022-12-18T08:07:04;18.47;;;10.67;;
15112;SDS011;7657;50.140;7.076;2022-12-18T08:09:31;19.77;;;9.60;;
15112;SDS011;7657;50.140;7.076;2022-12-18T08:11:58;18.03;;;8.73;;
15112;SDS011;7657;50.140;7.076;2022-12-18T08:14:24;18.67;;;10.27;;
15112;SDS011;7657;50.140;7.076;2022-12-18T08:16:51;18.80;;;11.40;;
15112;SDS011;7657;50.140;7.076;2022-12-18T08:19:20;17.30;;;10.50;;
15112;SDS011;7657;50.140;7.076;2022-12-18T08:21:46;17.47;;;9.50;;
15112;SDS011;7657;50.140;7.076;2022-12-18T08:24:13;20.10;;;9.27;;
15112;SDS011;7657;50.140;7.076;2022-12-18T08:26:40;16.70;;;9.07;;
15112;SDS011;7657;50.140;7.076;2022-12-18T08:29:08;21.43;;;12.07;;
15112;SDS011;7657;50.140;7.076;2022-12-18T08:31:36;24.13;;;15.30;;
15112;SDS011;7657;50.140;7.076;2022-12-18T08:34:05;41.43;;;25.07;;
15112;SDS011;7657;50.140;7.076;2022-12-18T08:36:33;31.13;;;17.77;;
15112;SDS011;7657;50.140;7.076;2022-12-18T08:39:00;17.53;;;11.00;;
15112;SDS011;7657;50.140;7.076;2022-12-18T08:41:26;21.90;;;11.73;;
15112;SDS011;7657;50.140;7.076;2022-12-18T08:43:53;16.70;;;9.30;;
15112;SDS011;7657;50.140;7.076;2022-12-18T08:46:39;19.03;;;10.17;;
15112;SDS011;7657;50.140;7.076;2022-12-18T08:49:07;18.07;;;10.43;;
15112;SDS011;7657;50.140;7.076;2022-12-18T08:51:37;17.77;;;9.90;;
15112;SDS011;7657;50.140;7.076;2022-12-18T08:54:04;18.83;;;11.47;;
15112;SDS011;7657;50.140;7.076;2022-12-18T08:56:32;22.27;;;11.70;;
15112;SDS011;7657;50.140;7.076;2022-12-18T08:58:59;20.77;;;10.40;;
15112;SDS011;7657;50.140;7.076;2022-12-18T09:01:26;24.83;;;12.27;;
15112;SDS011;7657;50.140;7.076;2022-12-18T09:03:53;19.17;;;10.73;;
15112;SDS011;7657;50.140;7.076;2022-12-18T09:06:20;18.53;;;9.67;;
15112;SDS011;7657;50.140;7.076;2022-12-18T09:08:50;22.33;;;12.87;;
15112;SDS011;7657;50.140;7.076;2022-12-18T09:11:19;16.50;;;9.93;;
15112;SDS011;7657;50.140;7.076;2022-12-18T09:13:47;17.87;;;10.50;;
15112;SDS011;7657;50.140;7.076;2022-12-18T09:16:14;18.40;;;10.00;;
15112;SDS011;7657;50.140;7.076;2022-12-18T09:18:42;22.13;;;11.33;;
15112;SDS011;7657;50.140;7.076;2022-12-18T09:21:09;19.20;;;10.40;;
15112;SDS011;7657;50.140;7.076;2022-12-18T09:23:38;18.90;;;10.07;;
15112;SDS011;7657;50.140;7.076;2022-12-18T09:26:06;22.27;;;11.87;;
15112;SDS011;7657;50.140;7.076;2022-12-18T09:28:33;21.97;;;12.27;;
15112;SDS011;7657;50.140;7.076;2022-12-18T09:31:03;18.93;;;10.60;;
15112;SDS011;7657;50.140;7.076;2022-12-18T09:33:32;17.77;;;10.37;;
15112;SDS011;7657;50.140;7.076;2022-12-18T09:36:00;18.97;;;10.63;;
15112;SDS011;7657;50.140;7.076;2022-12-18T09:38:28;21.27;;;11.77;;
15112;SDS011;7657;50.140;7.076;2022-12-18T09:40:56;19.53;;;10.93;;
15112;SDS011;7657;50.140;7.076;2022-12-18T09:43:28;17.53;;;9.47;;
15112;SDS011;7657;50.140;7.076;2022-12-18T09:46:03;18.43;;;10.20;;
15112;SDS011;7657;50.140;7.076;2022-12-18T09:48:34;18.87;;;10.33;;
15112;SDS011;7657;50.140;7.076;2022-12-18T09:51:03;16.00;;;9.97;;
15112;SDS011;7657;50.140;7.076;2022-12-18T09:53:41;17.13;;;9.73;;
15112;SDS011;7657;50.140;7.076;2022-12-18T09:56:12;18.77;;;10.10;;
15112;SDS011;7657;50.140;7.076;2022-12-18T09:58:46;18.47;;;9.97;;
15112;SDS011;7657;50.140;7.076;2022-12-18T10:01:16;18.27;;;10.57;;
15112;SDS011;7657;50.140;7.076;2022-12-18T10:03:47;17.97;;;10.27;;
15112;SDS011;7657;50.140;7.076;2022-12-18T10:06:15;18.27;;;10.83;;
15112;SDS011;7657;50.140;7.076;2022-12-18T10:08:49;19.70;;;10.97;;
15112;SDS011;7657;50.140;7.076;2022-12-18T10:11:27;17.77;;;10.47;;
15112;SDS011;7657;50.140;7.076;2022-12-18T10:14:06;21.70;;;11.60;;
15112;SDS011;7657;50.140;7.076;2022-12-18T10:16:41;20.73;;;11.03;;
15112;SDS011;7657;50.140;7.076;2022-12-18T10:19:19;19.93;;;10.73;;
15112;SDS011;7657;50.140;7.076;2022-12-18T10:21:57;19.17;;;10.77;;
15112;SDS011;7657;50.140;7.076;2022-12-18T10:24:32;21.33;;;10.87;;
15112;SDS011;7657;50.140;7.076;2022-12-18T10:27:09;19.83;;;11.27;;
15112;SDS011;7657;50.140;7.076;2022-12-18T10:29:42;21.73;;;11.93;;
15112;SDS011;7657;50.140;7.076;2022-12-18T10:32:13;21.00;;;11.67;;
15112;SDS011;7657;50.140;7.076;2022-12-18T10:34:44;19.83;;;11.07;;
15112;SDS011;7657;50.140;7.076;2022-12-18T10:37:14;19.70;;;11.30;;
15112;SDS011;7657;50.140;7.076;2022-12-18T10:39:44;19.57;;;11.50;;
15112;SDS011;7657;50.140;7.076;2022-12-18T10:42:14;20.53;;;11.53;;
15112;SDS011;7657;50.140;7.076;2022-12-18T10:44:45;22.23;;;12.93;;
15112;SDS011;7657;50.140;7.076;2022-12-18T10:47:12;21.20;;;11.67;;
15112;SDS011;7657;50.140;7.076;2022-12-18T10:49:49;21.80;;;12.63;;
15112;SDS011;7657;50.140;7.076;2022-12-18T10:52:20;22.00;;;11.57;;
15112;SDS011;7657;50.140;7.076;2022-12-18T10:54:49;20.83;;;12.27;;
15112;SDS011;7657;50.140;7.076;2022-12-18T10:57:31;20.73;;;11.50;;
15112;SDS011;7657;50.140;7.076;2022-12-18T11:00:19;22.07;;;11.20;;
15112;SDS011;7657;50.140;7.076;2022-12-18T11:02:48;20.63;;;12.03;;
15112;SDS011;7657;50.140;7.076;2022-12-18T11:05:26;19.37;;;11.63;;
15112;SDS011;7657;50.140;7.076;2022-12-18T11:07:56;24.00;;;13.93;;
15112;SDS011;7657;50.140;7.076;2022-12-18T11:10:26;21.67;;;12.40;;
15112;SDS011;7657;50.140;7.076;2022-12-18T11:13:08;21.13;;;13.80;;
15112;SDS011;7657;50.140;7.076;2022-12-18T11:15:43;21.23;;;13.00;;
15112;SDS011;7657;50.140;7.076;2022-12-18T11:18:16;20.13;;;12.03;;
15112;SDS011;7657;50.140;7.076;2022-12-18T11:20:49;23.70;;;13.50;;
15112;SDS011;7657;50.140;7.076;2022-12-18T11:23:18;20.67;;;12.83;;
15112;SDS011;7657;50.140;7.076;2022-12-18T11:25:51;21.50;;;12.63;;
15112;SDS011;7657;50.140;7.076;2022-12-18T11:28:27;24.33;;;14.07;;
15112;SDS011;7657;50.140;7.076;2022-12-18T11:31:11;22.60;;;13.43;;
15112;SDS011;7657;50.140;7.076;2022-12-18T11:34:00;20.63;;;12.70;;
15112;SDS011;7657;50.140;7.076;2022-12-18T11:36:32;21.27;;;12.20;;
15112;SDS011;7657;50.140;7.076;2022-12-18T11:39:08;21.13;;;12.47;;
15112;SDS011;7657;50.140;7.076;2022-12-18T11:41:43;22.17;;;12.37;;
15112;SDS011;7657;50.140;7.076;2022-12-18T11:44:34;23.27;;;13.90;;
15112;SDS011;7657;50.140;7.076;2022-12-18T11:47:09;22.50;;;13.33;;
15112;SDS011;7657;50.140;7.076;2022-12-18T11:49:45;25.30;;;14.13;;
15112;SDS011;7657;50.140;7.076;2022-12-18T11:52:15;21.73;;;11.93;;
15112;SDS011;7657;50.140;7.076;2022-12-18T11:54:45;29.37;;;15.13;;
15112;SDS011;7657;50.140;7.076;2022-12-18T11:57:15;23.93;;;13.70;;
15112;SDS011;7657;50.140;7.076;2022-12-18T11:59:51;21.37;;;12.40;;
15112;SDS011;7657;50.140;7.076;2022-12-18T12:02:36;22.47;;;12.97;;
15112;SDS011;7657;50.140;7.076;2022-12-18T12:05:27;24.07;;;13.77;;
15112;SDS011;7657;50.140;7.076;2022-12-18T12:08:04;23.23;;;12.87;;
15112;SDS011;7657;50.140;7.076;2022-12-18T12:10:40;24.87;;;14.40;;
15112;SDS011;7657;50.140;7.076;2022-12-18T12:13:15;25.40;;;14.40;;
15112;SDS011;7657;50.140;7.076;2022-12-18T12:15:57;23.53;;;13.83;;
15112;SDS011;7657;50.140;7.076;2022-12-18T12:18:37;23.03;;;13.60;;
15112;SDS011;7657;50.140;7.076;2022-12-18T12:21:23;22.20;;;13.27;;
15112;SDS011;7657;50.140;7.076;2022-12-18T12:23:56;24.07;;;14.70;;
15112;SDS011;7657;50.140;7.076;2022-12-18T12:26:32;26.00;;;14.63;;
15112;SDS011;7657;50.140;7.076;2022-12-18T12:29:09;23.47;;;14.10;;
15112;SDS011;7657;50.140;7.076;2022-12-18T12:31:53;26.27;;;14.27;;
15112;SDS011;7657;50.140;7.076;2022-12-18T12:34:29;25.23;;;14.37;;
15112;SDS011;7657;50.140;7.076;2022-12-18T12:37:07;26.17;;;15.10;;
15112;SDS011;7657;50.140;7.076;2022-12-18T12:39:42;28.63;;;16.70;;
15112;SDS011;7657;50.140;7.076;2022-12-18T12:42:14;27.63;;;14.90;;
15112;SDS011;7657;50.140;7.076;2022-12-18T12:45:03;25.20;;;14.10;;
15112;SDS011;7657;50.140;7.076;2022-12-18T12:47:33;24.67;;;14.17;;
15112;SDS011;7657;50.140;7.076;2022-12-18T12:50:11;24.20;;;14.00;;
15112;SDS011;7657;50.140;7.076;2022-12-18T12:52:40;24.33;;;13.57;;
15112;SDS011;7657;50.140;7.076;2022-12-18T12:55:13;23.40;;;13.63;;
15112;SDS011;7657;50.140;7.076;2022-12-18T12:57:45;24.63;;;13.53;;
15112;SDS011;7657;50.140;7.076;2022-12-18T13:00:15;24.43;;;14.13;;
15112;SDS011;7657;50.140;7.076;2022-12-18T13:02:45;25.67;;;13.83;;
15112;SDS011;7657;50.140;7.076;2022-12-18T13:05:21;23.00;;;13.57;;
15112;SDS011;7657;50.140;7.076;2022-12-18T13:07:53;23.93;;;14.57;;
15112;SDS011;7657;50.140;7.076;2022-12-18T13:10:28;24.33;;;15.60;;
15112;SDS011;7657;50.140;7.076;2022-12-18T13:12:59;23.20;;;14.90;;
15112;SDS011;7657;50.140;7.076;2022-12-18T13:15:31;25.23;;;15.63;;
15112;SDS011;7657;50.140;7.076;2022-12-18T13:18:11;25.30;;;15.63;;
15112;SDS011;7657;50.140;7.076;2022-12-18T13:20:45;27.23;;;15.50;;
15112;SDS011;7657;50.140;7.076;2022-12-18T13:23:27;25.60;;;14.80;;
15112;SDS011;7657;50.140;7.076;2022-12-18T13:25:57;27.20;;;16.73;;
15112;SDS011;7657;50.140;7.076;2022-12-18T13:31:57;24.30;;;15.07;;
15112;SDS011;7657;50.140;7.076;2022-12-18T13:34:34;24.20;;;13.90;;
15112;SDS011;7657;50.140;7.076;2022-12-18T13:43:27;27.27;;;14.73;;
15112;SDS011;7657;50.140;7.076;2022-12-18T13:46:02;28.63;;;17.57;;
15112;SDS011;7657;50.140;7.076;2022-12-18T13:48:32;26.53;;;16.87;;
15112;SDS011;7657;50.140;7.076;2022-12-18T13:51:02;28.20;;;15.07;;
15112;SDS011;7657;50.140;7.076;2022-12-18T13:53:33;25.50;;;15.00;;
15112;SDS011;7657;50.140;7.076;2022-12-18T13:56:03;27.03;;;15.13;;
15112;SDS011;7657;50.140;7.076;2022-12-18T13:58:32;25.07;;;14.63;;
15112;SDS011;7657;50.140;7.076;2022-12-18T14:00:59;27.73;;;14.93;;
15112;SDS011;7657;50.140;7.076;2022-12-18T14:03:28;29.60;;;16.03;;
15112;SDS011;7657;50.140;7.076;2022-12-18T14:05:59;25.73;;;14.60;;
15112;SDS011;7657;50.140;7.076;2022-12-18T14:08:33;26.10;;;15.53;;
15112;SDS011;7657;50.140;7.076;2022-12-18T14:11:05;30.90;;;16.57;;
15112;SDS011;7657;50.140;7.076;2022-12-18T14:13:35;25.73;;;14.77;;
15112;SDS011;7657;50.140;7.076;2022-12-18T14:16:04;28.97;;;16.20;;
15112;SDS011;7657;50.140;7.076;2022-12-18T14:18:36;28.47;;;16.20;;
15112;SDS011;7657;50.140;7.076;2022-12-18T14:21:14;28.47;;;17.13;;
15112;SDS011;7657;50.140;7.076;2022-12-18T14:23:45;28.60;;;16.37;;
15112;SDS011;7657;50.140;7.076;2022-12-18T14:26:23;26.17;;;15.30;;
15112;SDS011;7657;50.140;7.076;2022-12-18T14:28:54;29.10;;;16.63;;
15112;SDS011;7657;50.140;7.076;2022-12-18T14:31:22;28.13;;;15.20;;
15112;SDS011;7657;50.140;7.076;2022-12-18T14:33:51;27.20;;;15.57;;
15112;SDS011;7657;50.140;7.076;2022-12-18T14:36:19;28.50;;;15.93;;
15112;SDS011;7657;50.140;7.076;2022-12-18T14:38:48;24.00;;;14.70;;
15112;SDS011;7657;50.140;7.076;2022-12-18T14:41:16;26.90;;;15.77;;
15112;SDS011;7657;50.140;7.076;2022-12-18T14:43:46;26.10;;;15.33;;
15112;SDS011;7657;50.140;7.076;2022-12-18T14:46:32;26.80;;;15.17;;
15112;SDS011;7657;50.140;7.076;2022-12-18T14:49:02;26.00;;;15.17;;
15112;SDS011;7657;50.140;7.076;2022-12-18T14:51:31;26.70;;;15.33;;
15112;SDS011;7657;50.140;7.076;2022-12-18T14:53:59;30.43;;;16.00;;
15112;SDS011;7657;50.140;7.076;2022-12-18T14:56:28;27.87;;;15.47;;
15112;SDS011;7657;50.140;7.076;2022-12-18T14:58:58;28.33;;;15.57;;
15112;SDS011;7657;50.140;7.076;2022-12-18T15:01:27;28.63;;;15.30;;
15112;SDS011;7657;50.140;7.076;2022-12-18T15:03:57;29.57;;;16.20;;
15112;SDS011;7657;50.140;7.076;2022-12-18T15:06:26;26.40;;;15.17;;
15112;SDS011;7657;50.140;7.076;2022-12-18T15:08:56;27.73;;;15.10;;
15112;SDS011;7657;50.140;7.076;2022-12-18T15:17:00;28.83;;;15.87;;